METAR = EDDE 230550Z 23004KT 2500 BCFG OVC022 00/00 Q1034 TEMPO 0600 FG

TAF = TAF TAF COR EDDE 230505Z 2306/2406 21005KT 2500 BR OVC020 PROB40 TEMPO 2306/2309 0300 FG BKN001 BECMG 2308/2311 5000 BECMG 2311/2314 VRB03KT TEMPO 2401/2406 2000 BCFG

METAR EDDE Decoded:

STATION........ EDDE
OBSERVED....... Thu Jan 23, 06:50 MET
NOW............ Thu Jan 23, 06:55 MET
AGE............ 5 min ago
WIND........... SW at 7 km/h
VISIBILITY..... 4 miles
CONDITIONS..... patches of fog
CLOUDS......... overcast
TEMP........... 32°F (0°C)
WIND CHILL..... 25°F (-4°C)
DEWPT.......... 32°F (0°C)
HUMIDITY....... 100%
BAROMETER...... 1034 hPa (30.53 in Hg)


ICAO-Code: